sensor_id;sensor_type;location;lat;lon;timestamp;P1;durP1;ratioP1;P2;durP2;ratioP2
38972;SDS011;25333;50.762;4.470;2023-01-06T00:00:25;3.53;;;0.80;;
38972;SDS011;25333;50.762;4.470;2023-01-06T00:02:51;2.67;;;0.73;;
38972;SDS011;25333;50.762;4.470;2023-01-06T00:05:17;4.25;;;1.10;;
38972;SDS011;25333;50.762;4.470;2023-01-06T00:07:43;5.05;;;1.10;;
38972;SDS011;25333;50.762;4.470;2023-01-06T00:10:09;3.50;;;0.80;;
38972;SDS011;25333;50.762;4.470;2023-01-06T00:12:35;4.40;;;0.80;;
38972;SDS011;25333;50.762;4.470;2023-01-06T00:15:01;2.50;;;0.47;;
38972;SDS011;25333;50.762;4.470;2023-01-06T00:17:28;4.25;;;0.85;;
38972;SDS011;25333;50.762;4.470;2023-01-06T00:19:54;4.43;;;0.90;;
38972;SDS011;25333;50.762;4.470;2023-01-06T00:22:20;2.85;;;0.55;;
38972;SDS011;25333;50.762;4.470;2023-01-06T00:24:46;3.60;;;0.90;;
38972;SDS011;25333;50.762;4.470;2023-01-06T00:27:11;3.85;;;0.75;;
38972;SDS011;25333;50.762;4.470;2023-01-06T00:29:37;2.17;;;0.67;;
38972;SDS011;25333;50.762;4.470;2023-01-06T00:32:03;2.00;;;0.65;;
38972;SDS011;25333;50.762;4.470;2023-01-06T00:34:28;1.60;;;0.40;;
38972;SDS011;25333;50.762;4.470;2023-01-06T00:36:54;2.28;;;0.70;;
38972;SDS011;25333;50.762;4.470;2023-01-06T00:39:20;4.82;;;0.90;;
38972;SDS011;25333;50.762;4.470;2023-01-06T00:41:47;3.50;;;0.60;;
38972;SDS011;25333;50.762;4.470;2023-01-06T00:44:28;3.35;;;0.60;;
38972;SDS011;25333;50.762;4.470;2023-01-06T00:46:58;2.70;;;0.50;;
38972;SDS011;25333;50.762;4.470;2023-01-06T00:49:23;3.15;;;0.70;;
38972;SDS011;25333;50.762;4.470;2023-01-06T00:51:49;2.05;;;0.60;;
38972;SDS011;25333;50.762;4.470;2023-01-06T00:54:15;2.50;;;0.50;;
38972;SDS011;25333;50.762;4.470;2023-01-06T00:56:43;2.63;;;0.70;;
38972;SDS011;25333;50.762;4.470;2023-01-06T00:59:11;5.53;;;0.70;;
38972;SDS011;25333;50.762;4.470;2023-01-06T01:01:38;2.35;;;0.60;;
38972;SDS011;25333;50.762;4.470;2023-01-06T01:04:04;2.15;;;0.60;;
38972;SDS011;25333;50.762;4.470;2023-01-06T01:06:31;3.35;;;0.60;;
38972;SDS011;25333;50.762;4.470;2023-01-06T01:08:57;2.83;;;0.45;;
38972;SDS011;25333;50.762;4.470;2023-01-06T01:11:24;2.30;;;0.60;;
38972;SDS011;25333;50.762;4.470;2023-01-06T01:14:09;3.90;;;0.80;;
38972;SDS011;25333;50.762;4.470;2023-01-06T01:16:36;3.05;;;0.52;;
38972;SDS011;25333;50.762;4.470;2023-01-06T01:19:02;3.50;;;0.80;;
38972;SDS011;25333;50.762;4.470;2023-01-06T01:21:27;2.33;;;0.32;;
38972;SDS011;25333;50.762;4.470;2023-01-06T01:23:53;2.95;;;0.73;;
38972;SDS011;25333;50.762;4.470;2023-01-06T01:26:19;2.50;;;0.40;;
38972;SDS011;25333;50.762;4.470;2023-01-06T01:28:44;2.72;;;0.70;;
38972;SDS011;25333;50.762;4.470;2023-01-06T01:31:10;3.30;;;0.80;;
38972;SDS011;25333;50.762;4.470;2023-01-06T01:33:37;1.92;;;0.60;;
38972;SDS011;25333;50.762;4.470;2023-01-06T01:36:06;2.53;;;0.60;;
38972;SDS011;25333;50.762;4.470;2023-01-06T01:38:34;4.30;;;0.57;;
38972;SDS011;25333;50.762;4.470;2023-01-06T01:41:00;2.92;;;0.40;;
38972;SDS011;25333;50.762;4.470;2023-01-06T01:43:41;2.13;;;0.75;;
38972;SDS011;25333;50.762;4.470;2023-01-06T01:46:11;2.45;;;0.50;;
38972;SDS011;25333;50.762;4.470;2023-01-06T01:48:38;1.80;;;0.50;;
38972;SDS011;25333;50.762;4.470;2023-01-06T01:51:05;3.53;;;0.70;;
38972;SDS011;25333;50.762;4.470;2023-01-06T01:53:35;3.42;;;0.47;;
38972;SDS011;25333;50.762;4.470;2023-01-06T01:56:10;3.03;;;0.47;;
38972;SDS011;25333;50.762;4.470;2023-01-06T01:58:42;2.33;;;0.60;;
38972;SDS011;25333;50.762;4.470;2023-01-06T02:01:12;0.90;;;0.15;;
38972;SDS011;25333;50.762;4.470;2023-01-06T02:03:39;4.75;;;0.70;;
38972;SDS011;25333;50.762;4.470;2023-01-06T02:06:08;1.50;;;0.40;;
38972;SDS011;25333;50.762;4.470;2023-01-06T02:08:54;1.85;;;0.40;;
38972;SDS011;25333;50.762;4.470;2023-01-06T02:11:39;1.65;;;0.30;;
38972;SDS011;25333;50.762;4.470;2023-01-06T02:16:46;2.50;;;0.40;;
38972;SDS011;25333;50.762;4.470;2023-01-06T02:28:17;2.83;;;0.40;;
38972;SDS011;25333;50.762;4.470;2023-01-06T02:41:28;2.25;;;0.65;;
38972;SDS011;25333;50.762;4.470;2023-01-06T02:52:35;2.28;;;0.50;;
38972;SDS011;25333;50.762;4.470;2023-01-06T02:55:15;2.58;;;0.50;;
38972;SDS011;25333;50.762;4.470;2023-01-06T02:57:52;1.83;;;0.28;;
38972;SDS011;25333;50.762;4.470;2023-01-06T03:00:50;4.25;;;0.50;;
38972;SDS011;25333;50.762;4.470;2023-01-06T03:03:21;1.85;;;0.50;;
38972;SDS011;25333;50.762;4.470;2023-01-06T03:05:51;2.67;;;0.47;;
38972;SDS011;25333;50.762;4.470;2023-01-06T03:08:22;1.30;;;0.40;;
38972;SDS011;25333;50.762;4.470;2023-01-06T03:10:51;1.83;;;0.40;;
38972;SDS011;25333;50.762;4.470;2023-01-06T03:13:20;1.53;;;0.40;;
38972;SDS011;25333;50.762;4.470;2023-01-06T03:15:54;5.43;;;0.57;;
38972;SDS011;25333;50.762;4.470;2023-01-06T03:18:19;2.22;;;0.63;;
38972;SDS011;25333;50.762;4.470;2023-01-06T03:20:46;4.47;;;0.80;;
38972;SDS011;25333;50.762;4.470;2023-01-06T03:23:14;1.23;;;0.50;;
38972;SDS011;25333;50.762;4.470;2023-01-06T03:25:41;2.00;;;0.30;;
38972;SDS011;25333;50.762;4.470;2023-01-06T03:28:06;2.40;;;0.40;;
38972;SDS011;25333;50.762;4.470;2023-01-06T03:30:36;2.77;;;0.60;;
38972;SDS011;25333;50.762;4.470;2023-01-06T03:33:26;1.98;;;0.43;;
38972;SDS011;25333;50.762;4.470;2023-01-06T03:44:13;1.98;;;0.50;;
38972;SDS011;25333;50.762;4.470;2023-01-06T03:46:54;1.93;;;0.60;;
38972;SDS011;25333;50.762;4.470;2023-01-06T03:49:30;1.77;;;0.38;;
38972;SDS011;25333;50.762;4.470;2023-01-06T03:52:32;2.50;;;0.77;;
38972;SDS011;25333;50.762;4.470;2023-01-06T03:55:02;4.13;;;0.45;;
38972;SDS011;25333;50.762;4.470;2023-01-06T03:57:35;1.80;;;0.38;;
38972;SDS011;25333;50.762;4.470;2023-01-06T04:00:09;5.97;;;0.57;;
38972;SDS011;25333;50.762;4.470;2023-01-06T04:02:41;3.75;;;0.40;;
38972;SDS011;25333;50.762;4.470;2023-01-06T04:05:11;4.57;;;0.75;;
38972;SDS011;25333;50.762;4.470;2023-01-06T04:07:39;2.08;;;0.57;;
38972;SDS011;25333;50.762;4.470;2023-01-06T04:10:06;3.67;;;0.70;;
38972;SDS011;25333;50.762;4.470;2023-01-06T04:12:33;3.20;;;0.30;;
38972;SDS011;25333;50.762;4.470;2023-01-06T04:15:09;1.80;;;0.52;;
38972;SDS011;25333;50.762;4.470;2023-01-06T04:17:37;2.92;;;0.68;;
38972;SDS011;25333;50.762;4.470;2023-01-06T04:20:07;1.90;;;0.60;;
38972;SDS011;25333;50.762;4.470;2023-01-06T04:22:35;3.03;;;0.70;;
38972;SDS011;25333;50.762;4.470;2023-01-06T04:25:00;1.60;;;0.50;;
38972;SDS011;25333;50.762;4.470;2023-01-06T04:27:26;2.53;;;0.47;;
38972;SDS011;25333;50.762;4.470;2023-01-06T04:29:52;3.75;;;0.40;;
38972;SDS011;25333;50.762;4.470;2023-01-06T04:32:18;1.90;;;0.40;;
38972;SDS011;25333;50.762;4.470;2023-01-06T04:34:43;1.30;;;0.43;;
38972;SDS011;25333;50.762;4.470;2023-01-06T04:37:09;3.80;;;0.40;;
38972;SDS011;25333;50.762;4.470;2023-01-06T04:39:35;2.70;;;0.40;;
38972;SDS011;25333;50.762;4.470;2023-01-06T04:42:01;1.00;;;0.30;;
38972;SDS011;25333;50.762;4.470;2023-01-06T04:44:26;2.10;;;0.50;;
38972;SDS011;25333;50.762;4.470;2023-01-06T04:46:52;2.80;;;0.38;;
38972;SDS011;25333;50.762;4.470;2023-01-06T04:49:17;1.47;;;0.27;;
38972;SDS011;25333;50.762;4.470;2023-01-06T04:51:43;2.92;;;0.50;;
38972;SDS011;25333;50.762;4.470;2023-01-06T04:54:09;1.70;;;0.60;;
38972;SDS011;25333;50.762;4.470;2023-01-06T04:56:34;2.25;;;0.40;;
38972;SDS011;25333;50.762;4.470;2023-01-06T04:59:00;1.87;;;0.50;;
38972;SDS011;25333;50.762;4.470;2023-01-06T05:01:27;3.13;;;0.57;;
38972;SDS011;25333;50.762;4.470;2023-01-06T05:03:53;1.63;;;0.60;;
38972;SDS011;25333;50.762;4.470;2023-01-06T05:06:19;1.70;;;0.40;;
38972;SDS011;25333;50.762;4.470;2023-01-06T05:08:45;3.20;;;0.70;;
38972;SDS011;25333;50.762;4.470;2023-01-06T05:11:21;2.75;;;0.68;;
38972;SDS011;25333;50.762;4.470;2023-01-06T05:13:48;0.75;;;0.15;;
38972;SDS011;25333;50.762;4.470;2023-01-06T05:16:18;2.77;;;0.53;;
38972;SDS011;25333;50.762;4.470;2023-01-06T05:18:47;3.53;;;0.65;;
38972;SDS011;25333;50.762;4.470;2023-01-06T05:21:13;3.00;;;0.50;;
38972;SDS011;25333;50.762;4.470;2023-01-06T05:23:38;2.30;;;1.00;;
38972;SDS011;25333;50.762;4.470;2023-01-06T05:26:05;1.43;;;0.57;;
38972;SDS011;25333;50.762;4.470;2023-01-06T05:28:30;1.50;;;0.67;;
38972;SDS011;25333;50.762;4.470;2023-01-06T05:31:00;1.57;;;0.57;;
38972;SDS011;25333;50.762;4.470;2023-01-06T05:33:26;1.75;;;0.60;;
38972;SDS011;25333;50.762;4.470;2023-01-06T05:36:02;2.50;;;0.50;;
38972;SDS011;25333;50.762;4.470;2023-01-06T05:38:33;1.55;;;0.40;;
38972;SDS011;25333;50.762;4.470;2023-01-06T05:40:58;2.05;;;0.65;;
38972;SDS011;25333;50.762;4.470;2023-01-06T05:43:24;2.03;;;0.60;;
38972;SDS011;25333;50.762;4.470;2023-01-06T05:45:51;2.83;;;0.70;;
38972;SDS011;25333;50.762;4.470;2023-01-06T05:48:17;1.30;;;0.40;;
38972;SDS011;25333;50.762;4.470;2023-01-06T05:50:43;1.35;;;0.63;;
38972;SDS011;25333;50.762;4.470;2023-01-06T05:53:09;3.00;;;0.60;;
38972;SDS011;25333;50.762;4.470;2023-01-06T05:55:35;1.73;;;0.40;;
38972;SDS011;25333;50.762;4.470;2023-01-06T05:58:00;1.60;;;0.70;;
38972;SDS011;25333;50.762;4.470;2023-01-06T06:00:26;1.55;;;0.55;;
38972;SDS011;25333;50.762;4.470;2023-01-06T06:02:51;2.30;;;0.50;;
38972;SDS011;25333;50.762;4.470;2023-01-06T06:05:17;1.30;;;0.40;;
38972;SDS011;25333;50.762;4.470;2023-01-06T06:07:43;1.43;;;0.47;;
38972;SDS011;25333;50.762;4.470;2023-01-06T06:10:09;1.60;;;0.30;;
38972;SDS011;25333;50.762;4.470;2023-01-06T06:12:34;2.10;;;0.50;;
38972;SDS011;25333;50.762;4.470;2023-01-06T06:15:01;1.50;;;0.40;;
38972;SDS011;25333;50.762;4.470;2023-01-06T06:17:26;1.05;;;0.40;;
38972;SDS011;25333;50.762;4.470;2023-01-06T06:19:52;3.75;;;0.50;;
38972;SDS011;25333;50.762;4.470;2023-01-06T06:22:18;1.10;;;0.37;;
38972;SDS011;25333;50.762;4.470;2023-01-06T06:24:43;0.80;;;0.30;;
38972;SDS011;25333;50.762;4.470;2023-01-06T06:27:09;2.43;;;0.30;;
38972;SDS011;25333;50.762;4.470;2023-01-06T06:29:34;1.92;;;0.40;;
38972;SDS011;25333;50.762;4.470;2023-01-06T06:32:00;0.90;;;0.20;;
38972;SDS011;25333;50.762;4.470;2023-01-06T06:34:26;2.75;;;0.73;;
38972;SDS011;25333;50.762;4.470;2023-01-06T06:36:51;1.87;;;0.30;;
38972;SDS011;25333;50.762;4.470;2023-01-06T06:39:18;1.88;;;0.30;;
38972;SDS011;25333;50.762;4.470;2023-01-06T06:41:43;2.03;;;0.27;;
38972;SDS011;25333;50.762;4.470;2023-01-06T06:44:09;3.47;;;0.60;;
38972;SDS011;25333;50.762;4.470;2023-01-06T06:46:34;2.03;;;0.30;;
38972;SDS011;25333;50.762;4.470;2023-01-06T06:49:00;1.20;;;0.40;;
38972;SDS011;25333;50.762;4.470;2023-01-06T06:51:26;1.17;;;0.33;;
38972;SDS011;25333;50.762;4.470;2023-01-06T06:53:55;1.90;;;0.50;;
38972;SDS011;25333;50.762;4.470;2023-01-06T06:56:21;0.45;;;0.10;;
38972;SDS011;25333;50.762;4.470;2023-01-06T06:58:47;1.50;;;0.28;;
38972;SDS011;25333;50.762;4.470;2023-01-06T07:01:16;0.70;;;0.17;;
38972;SDS011;25333;50.762;4.470;2023-01-06T07:03:43;0.93;;;0.20;;
38972;SDS011;25333;50.762;4.470;2023-01-06T07:06:13;0.80;;;0.20;;
38972;SDS011;25333;50.762;4.470;2023-01-06T07:08:43;1.10;;;0.40;;
38972;SDS011;25333;50.762;4.470;2023-01-06T07:11:10;1.17;;;0.25;;
38972;SDS011;25333;50.762;4.470;2023-01-06T07:13:36;1.35;;;0.40;;
38972;SDS011;25333;50.762;4.470;2023-01-06T07:16:01;2.33;;;0.40;;
38972;SDS011;25333;50.762;4.470;2023-01-06T07:18:27;0.98;;;0.20;;
38972;SDS011;25333;50.762;4.470;2023-01-06T07:20:52;0.90;;;0.20;;
38972;SDS011;25333;50.762;4.470;2023-01-06T07:23:18;0.60;;;0.20;;
38972;SDS011;25333;50.762;4.470;2023-01-06T07:25:49;0.95;;;0.40;;
38972;SDS011;25333;50.762;4.470;2023-01-06T07:28:16;0.73;;;0.30;;
38972;SDS011;25333;50.762;4.470;2023-01-06T07:30:41;1.40;;;0.25;;
38972;SDS011;25333;50.762;4.470;2023-01-06T07:33:07;4.27;;;0.30;;
38972;SDS011;25333;50.762;4.470;2023-01-06T07:35:33;0.77;;;0.20;;
38972;SDS011;25333;50.762;4.470;2023-01-06T07:38:05;0.88;;;0.28;;
38972;SDS011;25333;50.762;4.470;2023-01-06T07:40:31;3.85;;;0.30;;
38972;SDS011;25333;50.762;4.470;2023-01-06T07:42:57;1.92;;;0.35;;
38972;SDS011;25333;50.762;4.470;2023-01-06T07:45:28;5.40;;;0.45;;
38972;SDS011;25333;50.762;4.470;2023-01-06T07:47:54;1.23;;;0.33;;
38972;SDS011;25333;50.762;4.470;2023-01-06T07:50:20;1.15;;;0.30;;
38972;SDS011;25333;50.762;4.470;2023-01-06T07:52:46;1.10;;;0.30;;
38972;SDS011;25333;50.762;4.470;2023-01-06T07:55:12;1.13;;;0.30;;
38972;SDS011;25333;50.762;4.470;2023-01-06T07:57:37;1.20;;;0.40;;
38972;SDS011;25333;50.762;4.470;2023-01-06T08:00:03;0.77;;;0.37;;
38972;SDS011;25333;50.762;4.470;2023-01-06T08:02:29;1.40;;;0.40;;
38972;SDS011;25333;50.762;4.470;2023-01-06T08:04:55;1.30;;;0.30;;
38972;SDS011;25333;50.762;4.470;2023-01-06T08:07:20;0.80;;;0.30;;
38972;SDS011;25333;50.762;4.470;2023-01-06T08:09:46;0.90;;;0.40;;
38972;SDS011;25333;50.762;4.470;2023-01-06T08:12:12;1.17;;;0.53;;
38972;SDS011;25333;50.762;4.470;2023-01-06T08:14:37;1.33;;;0.47;;
38972;SDS011;25333;50.762;4.470;2023-01-06T08:17:03;0.70;;;0.30;;
38972;SDS011;25333;50.762;4.470;2023-01-06T08:19:29;1.33;;;0.50;;
38972;SDS011;25333;50.762;4.470;2023-01-06T08:21:54;1.40;;;0.50;;
38972;SDS011;25333;50.762;4.470;2023-01-06T08:24:20;2.15;;;0.50;;
38972;SDS011;25333;50.762;4.470;2023-01-06T08:26:46;1.67;;;0.90;;
38972;SDS011;25333;50.762;4.470;2023-01-06T08:29:11;1.42;;;0.73;;
38972;SDS011;25333;50.762;4.470;2023-01-06T08:31:37;1.40;;;0.67;;
38972;SDS011;25333;50.762;4.470;2023-01-06T08:34:02;3.50;;;0.60;;
38972;SDS011;25333;50.762;4.470;2023-01-06T08:36:28;0.80;;;0.40;;
38972;SDS011;25333;50.762;4.470;2023-01-06T08:38:54;2.07;;;0.70;;
38972;SDS011;25333;50.762;4.470;2023-01-06T08:41:19;1.70;;;0.60;;
38972;SDS011;25333;50.762;4.470;2023-01-06T08:43:45;1.17;;;0.30;;
38972;SDS011;25333;50.762;4.470;2023-01-06T08:46:14;1.08;;;0.57;;
38972;SDS011;25333;50.762;4.470;2023-01-06T08:48:43;1.03;;;0.40;;
38972;SDS011;25333;50.762;4.470;2023-01-06T08:51:13;1.10;;;0.30;;
38972;SDS011;25333;50.762;4.470;2023-01-06T08:53:41;1.50;;;0.55;;
38972;SDS011;25333;50.762;4.470;2023-01-06T08:56:15;1.55;;;0.60;;
38972;SDS011;25333;50.762;4.470;2023-01-06T08:58:43;1.42;;;0.60;;
38972;SDS011;25333;50.762;4.470;2023-01-06T09:01:16;1.55;;;0.45;;
38972;SDS011;25333;50.762;4.470;2023-01-06T09:03:43;2.20;;;0.60;;
38972;SDS011;25333;50.762;4.470;2023-01-06T09:06:09;0.88;;;0.50;;
38972;SDS011;25333;50.762;4.470;2023-01-06T09:08:34;1.80;;;0.47;;
38972;SDS011;25333;50.762;4.470;2023-01-06T09:11:08;1.27;;;0.50;;
38972;SDS011;25333;50.762;4.470;2023-01-06T09:13:35;2.83;;;0.47;;
38972;SDS011;25333;50.762;4.470;2023-01-06T09:16:04;1.30;;;0.40;;
38972;SDS011;25333;50.762;4.470;2023-01-06T09:18:31;2.80;;;0.60;;
38972;SDS011;25333;50.762;4.470;2023-01-06T09:20:56;1.40;;;0.47;;
38972;SDS011;25333;50.762;4.470;2023-01-06T09:23:22;1.90;;;0.50;;
38972;SDS011;25333;50.762;4.470;2023-01-06T09:25:48;3.72;;;0.90;;
38972;SDS011;25333;50.762;4.470;2023-01-06T09:28:14;1.45;;;0.60;;
38972;SDS011;25333;50.762;4.470;2023-01-06T09:30:40;2.28;;;0.68;;
38972;SDS011;25333;50.762;4.470;2023-01-06T09:33:07;1.67;;;0.55;;
38972;SDS011;25333;50.762;4.470;2023-01-06T09:35:32;1.10;;;0.50;;
38972;SDS011;25333;50.762;4.470;2023-01-06T09:37:58;3.27;;;0.77;;
38972;SDS011;25333;50.762;4.470;2023-01-06T09:46:11;1.17;;;0.70;;
38972;SDS011;25333;50.762;4.470;2023-01-06T09:48:43;1.00;;;0.40;;
38972;SDS011;25333;50.762;4.470;2023-01-06T09:51:18;1.35;;;0.70;;
38972;SDS011;25333;50.762;4.470;2023-01-06T09:53:49;2.03;;;1.13;;
38972;SDS011;25333;50.762;4.470;2023-01-06T09:56:19;1.30;;;0.80;;
38972;SDS011;25333;50.762;4.470;2023-01-06T10:01:35;1.38;;;0.68;;
38972;SDS011;25333;50.762;4.470;2023-01-06T10:04:24;2.90;;;0.80;;
38972;SDS011;25333;50.762;4.470;2023-01-06T10:09:42;2.08;;;0.70;;
38972;SDS011;25333;50.762;4.470;2023-01-06T10:15:21;1.30;;;0.52;;
38972;SDS011;25333;50.762;4.470;2023-01-06T10:28:37;2.10;;;0.70;;
38972;SDS011;25333;50.762;4.470;2023-01-06T10:31:15;1.10;;;0.57;;
38972;SDS011;25333;50.762;4.470;2023-01-06T10:33:46;0.80;;;0.60;;
38972;SDS011;25333;50.762;4.470;2023-01-06T10:36:15;1.15;;;0.55;;
38972;SDS011;25333;50.762;4.470;2023-01-06T10:38:48;0.95;;;0.40;;
38972;SDS011;25333;50.762;4.470;2023-01-06T10:44:03;0.93;;;0.50;;
38972;SDS011;25333;50.762;4.470;2023-01-06T10:46:31;2.55;;;0.60;;
38972;SDS011;25333;50.762;4.470;2023-01-06T10:48:59;0.95;;;0.40;;
38972;SDS011;25333;50.762;4.470;2023-01-06T10:51:34;1.35;;;0.80;;
38972;SDS011;25333;50.762;4.470;2023-01-06T10:54:04;1.55;;;0.80;;
38972;SDS011;25333;50.762;4.470;2023-01-06T10:56:34;0.63;;;0.35;;
38972;SDS011;25333;50.762;4.470;2023-01-06T10:59:05;0.75;;;0.50;;
38972;SDS011;25333;50.762;4.470;2023-01-06T11:01:32;1.02;;;0.30;;
38972;SDS011;25333;50.762;4.470;2023-01-06T11:04:05;3.22;;;0.47;;
38972;SDS011;25333;50.762;4.470;2023-01-06T11:06:33;0.80;;;0.30;;
38972;SDS011;25333;50.762;4.470;2023-01-06T11:11:58;0.70;;;0.30;;
38972;SDS011;25333;50.762;4.470;2023-01-06T11:14:27;1.17;;;0.52;;
38972;SDS011;25333;50.762;4.470;2023-01-06T11:16:57;0.80;;;0.40;;
38972;SDS011;25333;50.762;4.470;2023-01-06T11:19:38;0.90;;;0.35;;
38972;SDS011;25333;50.762;4.470;2023-01-06T11:22:31;1.52;;;0.50;;
38972;SDS011;25333;50.762;4.470;2023-01-06T11:24:58;1.00;;;0.35;;
38972;SDS011;25333;50.762;4.470;2023-01-06T11:27:24;2.65;;;0.95;;
38972;SDS011;25333;50.762;4.470;2023-01-06T11:29:50;1.90;;;0.60;;
38972;SDS011;25333;50.762;4.470;2023-01-06T11:32:25;2.15;;;0.73;;
38972;SDS011;25333;50.762;4.470;2023-01-06T11:35:02;1.02;;;0.65;;
38972;SDS011;25333;50.762;4.470;2023-01-06T11:37:34;1.05;;;0.77;;
38972;SDS011;25333;50.762;4.470;2023-01-06T11:42:52;1.17;;;0.55;;
38972;SDS011;25333;50.762;4.470;2023-01-06T11:45:28;0.70;;;0.40;;
38972;SDS011;25333;50.762;4.470;2023-01-06T11:48:06;1.08;;;0.50;;
38972;SDS011;25333;50.762;4.470;2023-01-06T11:50:48;1.25;;;0.68;;
38972;SDS011;25333;50.762;4.470;2023-01-06T11:53:16;1.50;;;0.40;;
38972;SDS011;25333;50.762;4.470;2023-01-06T11:55:59;2.20;;;0.50;;
38972;SDS011;25333;50.762;4.470;2023-01-06T12:01:38;1.17;;;0.60;;
38972;SDS011;25333;50.762;4.470;2023-01-06T12:06:59;2.47;;;1.08;;
38972;SDS011;25333;50.762;4.470;2023-01-06T12:09:48;2.40;;;1.35;;
38972;SDS011;25333;50.762;4.470;2023-01-06T12:12:25;1.92;;;1.35;;
38972;SDS011;25333;50.762;4.470;2023-01-06T12:14:51;2.08;;;1.25;;
38972;SDS011;25333;50.762;4.470;2023-01-06T12:17:35;1.80;;;1.27;;
38972;SDS011;25333;50.762;4.470;2023-01-06T12:22:48;2.10;;;0.90;;
38972;SDS011;25333;50.762;4.470;2023-01-06T12:25:18;2.10;;;1.20;;
38972;SDS011;25333;50.762;4.470;2023-01-06T12:36:07;1.30;;;1.05;;
38972;SDS011;25333;50.762;4.470;2023-01-06T12:38:51;3.63;;;1.45;;
38972;SDS011;25333;50.762;4.470;2023-01-06T12:47:12;2.08;;;1.55;;
38972;SDS011;25333;50.762;4.470;2023-01-06T12:52:24;2.53;;;1.27;;
38972;SDS011;25333;50.762;4.470;2023-01-06T12:54:55;2.67;;;1.73;;
38972;SDS011;25333;50.762;4.470;2023-01-06T13:00:20;4.85;;;1.70;;
38972;SDS011;25333;50.762;4.470;2023-01-06T13:03:02;2.00;;;1.20;;
38972;SDS011;25333;50.762;4.470;2023-01-06T13:17:10;5.70;;;1.42;;
38972;SDS011;25333;50.762;4.470;2023-01-06T13:19:49;4.18;;;1.48;;
38972;SDS011;25333;50.762;4.470;2023-01-06T13:30:53;2.38;;;1.40;;
38972;SDS011;25333;50.762;4.470;2023-01-06T13:39:33;3.35;;;1.75;;
38972;SDS011;25333;50.762;4.470;2023-01-06T13:42:05;2.75;;;1.60;;
38972;SDS011;25333;50.762;4.470;2023-01-06T13:44:38;2.35;;;1.60;;
38972;SDS011;25333;50.762;4.470;2023-01-06T13:47:08;4.30;;;1.42;;
38972;SDS011;25333;50.762;4.470;2023-01-06T13:49:38;3.08;;;1.45;;
38972;SDS011;25333;50.762;4.470;2023-01-06T13:52:13;3.30;;;1.23;;
38972;SDS011;25333;50.762;4.470;2023-01-06T14:00:20;2.30;;;1.50;;
38972;SDS011;25333;50.762;4.470;2023-01-06T14:07:48;2.17;;;1.40;;
38972;SDS011;25333;50.762;4.470;2023-01-06T14:10:40;1.40;;;0.95;;
38972;SDS011;25333;50.762;4.470;2023-01-06T14:13:20;1.80;;;1.13;;
38972;SDS011;25333;50.762;4.470;2023-01-06T14:18:44;1.92;;;0.73;;
38972;SDS011;25333;50.762;4.470;2023-01-06T14:21:26;2.08;;;0.88;;
38972;SDS011;25333;50.762;4.470;2023-01-06T14:24:06;1.63;;;0.57;;
38972;SDS011;25333;50.762;4.470;2023-01-06T14:26:53;2.10;;;0.90;;
38972;SDS011;25333;50.762;4.470;2023-01-06T14:32:56;2.00;;;0.90;;
38972;SDS011;25333;50.762;4.470;2023-01-06T14:35:00;3.38;;;1.10;;
38972;SDS011;25333;50.762;4.470;2023-01-06T14:37:40;1.77;;;0.60;;
38972;SDS011;25333;50.762;4.470;2023-01-06T14:40:36;2.42;;;1.20;;
38972;SDS011;25333;50.762;4.470;2023-01-06T14:43:49;1.73;;;0.93;;
38972;SDS011;25333;50.762;4.470;2023-01-06T14:45:53;3.63;;;1.15;;
38972;SDS011;25333;50.762;4.470;2023-01-06T14:48:22;2.22;;;1.48;;
38972;SDS011;25333;50.762;4.470;2023-01-06T14:50:52;2.58;;;1.40;;
38972;SDS011;25333;50.762;4.470;2023-01-06T14:53:26;2.72;;;0.77;;
38972;SDS011;25333;50.762;4.470;2023-01-06T14:55:57;1.90;;;0.88;;
38972;SDS011;25333;50.762;4.470;2023-01-06T14:58:33;2.50;;;0.90;;
38972;SDS011;25333;50.762;4.470;2023-01-06T15:01:03;2.00;;;1.00;;
38972;SDS011;25333;50.762;4.470;2023-01-06T15:03:30;3.22;;;1.00;;
38972;SDS011;25333;50.762;4.470;2023-01-06T15:06:10;1.92;;;0.98;;
38972;SDS011;25333;50.762;4.470;2023-01-06T15:08:40;2.23;;;1.07;;
38972;SDS011;25333;50.762;4.470;2023-01-06T15:13:52;2.78;;;1.00;;
38972;SDS011;25333;50.762;4.470;2023-01-06T15:19:05;1.88;;;0.82;;
38972;SDS011;25333;50.762;4.470;2023-01-06T15:21:39;1.67;;;0.73;;
38972;SDS011;25333;50.762;4.470;2023-01-06T15:24:23;3.72;;;0.95;;
38972;SDS011;25333;50.762;4.470;2023-01-06T15:26:52;2.08;;;0.90;;
38972;SDS011;25333;50.762;4.470;2023-01-06T15:29:20;2.95;;;1.20;;
38972;SDS011;25333;50.762;4.470;2023-01-06T15:31:48;1.77;;;0.90;;
38972;SDS011;25333;50.762;4.470;2023-01-06T15:36:44;2.17;;;1.00;;
38972;SDS011;25333;50.762;4.470;2023-01-06T15:39:12;1.88;;;0.70;;
38972;SDS011;25333;50.762;4.470;2023-01-06T15:41:40;2.00;;;0.75;;
38972;SDS011;25333;50.762;4.470;2023-01-06T15:46:54;1.85;;;0.85;;
38972;SDS011;25333;50.762;4.470;2023-01-06T15:49:28;2.45;;;0.90;;
38972;SDS011;25333;50.762;4.470;2023-01-06T15:52:00;1.38;;;0.70;;
38972;SDS011;25333;50.762;4.470;2023-01-06T15:54:31;1.77;;;1.08;;
38972;SDS011;25333;50.762;4.470;2023-01-06T15:57:00;1.00;;;0.50;;
38972;SDS011;25333;50.762;4.470;2023-01-06T15:59:27;1.85;;;0.60;;
38972;SDS011;25333;50.762;4.470;2023-01-06T16:01:54;2.45;;;1.05;;
38972;SDS011;25333;50.762;4.470;2023-01-06T16:04:20;1.88;;;0.80;;
38972;SDS011;25333;50.762;4.470;2023-01-06T16:06:47;1.40;;;0.60;;
38972;SDS011;25333;50.762;4.470;2023-01-06T16:14:32;1.80;;;0.60;;
38972;SDS011;25333;50.762;4.470;2023-01-06T16:19:36;1.92;;;1.02;;
38972;SDS011;25333;50.762;4.470;2023-01-06T16:22:23;1.80;;;0.75;;
38972;SDS011;25333;50.762;4.470;2023-01-06T16:24:53;3.05;;;1.10;;
38972;SDS011;25333;50.762;4.470;2023-01-06T16:27:22;2.50;;;1.10;;
38972;SDS011;25333;50.762;4.470;2023-01-06T16:30:06;2.83;;;1.15;;
38972;SDS011;25333;50.762;4.470;2023-01-06T16:32:34;2.25;;;1.20;;
38972;SDS011;25333;50.762;4.470;2023-01-06T16:37:38;2.20;;;1.13;;
38972;SDS011;25333;50.762;4.470;2023-01-06T16:40:04;2.38;;;1.33;;
38972;SDS011;25333;50.762;4.470;2023-01-06T16:42:32;2.33;;;1.50;;
38972;SDS011;25333;50.762;4.470;2023-01-06T16:45:07;3.20;;;1.60;;
38972;SDS011;25333;50.762;4.470;2023-01-06T16:47:33;2.78;;;1.80;;
38972;SDS011;25333;50.762;4.470;2023-01-06T16:50:06;4.13;;;1.87;;
38972;SDS011;25333;50.762;4.470;2023-01-06T16:53:02;3.70;;;2.30;;
38972;SDS011;25333;50.762;4.470;2023-01-06T16:55:36;3.10;;;1.40;;
38972;SDS011;25333;50.762;4.470;2023-01-06T16:58:20;3.10;;;1.38;;
38972;SDS011;25333;50.762;4.470;2023-01-06T17:00:48;4.20;;;1.90;;
38972;SDS011;25333;50.762;4.470;2023-01-06T17:03:33;2.42;;;1.52;;
38972;SDS011;25333;50.762;4.470;2023-01-06T17:06:00;2.92;;;1.75;;
38972;SDS011;25333;50.762;4.470;2023-01-06T17:08:27;2.97;;;2.33;;
38972;SDS011;25333;50.762;4.470;2023-01-06T17:10:58;3.60;;;2.63;;
38972;SDS011;25333;50.762;4.470;2023-01-06T17:13:25;3.30;;;2.33;;
38972;SDS011;25333;50.762;4.470;2023-01-06T17:18:36;4.10;;;2.20;;
38972;SDS011;25333;50.762;4.470;2023-01-06T17:21:13;3.30;;;2.20;;
38972;SDS011;25333;50.762;4.470;2023-01-06T17:23:47;2.78;;;2.03;;
38972;SDS011;25333;50.762;4.470;2023-01-06T17:26:15;2.15;;;1.92;;
38972;SDS011;25333;50.762;4.470;2023-01-06T17:28:42;4.05;;;2.72;;
38972;SDS011;25333;50.762;4.470;2023-01-06T17:31:12;3.60;;;2.80;;
38972;SDS011;25333;50.762;4.470;2023-01-06T17:33:40;3.87;;;2.80;;
38972;SDS011;25333;50.762;4.470;2023-01-06T17:36:09;3.10;;;2.80;;
38972;SDS011;25333;50.762;4.470;2023-01-06T17:38:46;4.05;;;3.30;;
38972;SDS011;25333;50.762;4.470;2023-01-06T17:41:13;3.38;;;2.38;;
38972;SDS011;25333;50.762;4.470;2023-01-06T17:43:41;3.38;;;2.88;;
38972;SDS011;25333;50.762;4.470;2023-01-06T17:46:15;4.37;;;3.67;;
38972;SDS011;25333;50.762;4.470;2023-01-06T17:48:43;4.32;;;3.53;;
38972;SDS011;25333;50.762;4.470;2023-01-06T17:51:11;3.63;;;2.70;;